sensor_id;sensor_type;location;lat;lon;timestamp;temperature;humidity
21193;DHT22;10754;51.106;7.164;2022-07-23T00:00:27;22.20;1.00
21193;DHT22;10754;51.106;7.164;2022-07-23T00:02:52;22.10;1.00
21193;DHT22;10754;51.106;7.164;2022-07-23T00:05:18;22.10;1.00
21193;DHT22;10754;51.106;7.164;2022-07-23T00:07:43;22.10;1.00
21193;DHT22;10754;51.106;7.164;2022-07-23T00:10:09;22.10;1.00
21193;DHT22;10754;51.106;7.164;2022-07-23T00:12:35;22.10;1.00
21193;DHT22;10754;51.106;7.164;2022-07-23T00:15:00;22.00;1.00
21193;DHT22;10754;51.106;7.164;2022-07-23T00:17:26;21.90;1.00
21193;DHT22;10754;51.106;7.164;2022-07-23T00:19:52;21.80;1.00
21193;DHT22;10754;51.106;7.164;2022-07-23T00:22:18;21.70;1.00
21193;DHT22;10754;51.106;7.164;2022-07-23T00:24:44;21.70;1.00
21193;DHT22;10754;51.106;7.164;2022-07-23T00:27:09;21.60;1.00
21193;DHT22;10754;51.106;7.164;2022-07-23T00:29:35;21.60;1.00
21193;DHT22;10754;51.106;7.164;2022-07-23T00:32:00;21.50;1.00
21193;DHT22;10754;51.106;7.164;2022-07-23T00:34:26;21.50;1.00
21193;DHT22;10754;51.106;7.164;2022-07-23T00:36:52;21.50;1.00
21193;DHT22;10754;51.106;7.164;2022-07-23T00:39:19;21.50;1.00
21193;DHT22;10754;51.106;7.164;2022-07-23T00:41:46;21.50;1.00
21193;DHT22;10754;51.106;7.164;2022-07-23T00:44:23;21.50;1.00
21193;DHT22;10754;51.106;7.164;2022-07-23T00:46:51;21.50;1.00
21193;DHT22;10754;51.106;7.164;2022-07-23T00:49:23;21.40;1.00
21193;DHT22;10754;51.106;7.164;2022-07-23T00:51:49;21.30;1.00
21193;DHT22;10754;51.106;7.164;2022-07-23T00:54:15;21.30;1.00
21193;DHT22;10754;51.106;7.164;2022-07-23T00:56:43;21.30;1.00
21193;DHT22;10754;51.106;7.164;2022-07-23T00:59:09;21.30;1.00
21193;DHT22;10754;51.106;7.164;2022-07-23T01:01:34;21.30;1.00
21193;DHT22;10754;51.106;7.164;2022-07-23T01:04:00;21.30;1.00
21193;DHT22;10754;51.106;7.164;2022-07-23T01:06:25;21.30;1.00
21193;DHT22;10754;51.106;7.164;2022-07-23T01:08:51;21.40;1.00
21193;DHT22;10754;51.106;7.164;2022-07-23T01:11:18;21.30;1.00
21193;DHT22;10754;51.106;7.164;2022-07-23T01:13:44;21.30;1.00
21193;DHT22;10754;51.106;7.164;2022-07-23T01:16:10;21.30;1.00
21193;DHT22;10754;51.106;7.164;2022-07-23T01:18:35;21.30;1.00
21193;DHT22;10754;51.106;7.164;2022-07-23T01:21:01;21.30;1.00
21193;DHT22;10754;51.106;7.164;2022-07-23T01:23:27;21.30;1.00
21193;DHT22;10754;51.106;7.164;2022-07-23T01:25:53;21.30;1.00
21193;DHT22;10754;51.106;7.164;2022-07-23T01:28:18;21.30;1.00
21193;DHT22;10754;51.106;7.164;2022-07-23T01:30:45;21.30;1.00
21193;DHT22;10754;51.106;7.164;2022-07-23T01:33:11;21.30;1.00
21193;DHT22;10754;51.106;7.164;2022-07-23T01:35:37;21.30;1.00
21193;DHT22;10754;51.106;7.164;2022-07-23T01:38:02;21.30;1.00
21193;DHT22;10754;51.106;7.164;2022-07-23T01:40:28;21.30;1.00
21193;DHT22;10754;51.106;7.164;2022-07-23T01:42:53;21.20;1.00
21193;DHT22;10754;51.106;7.164;2022-07-23T01:45:19;21.20;1.00
21193;DHT22;10754;51.106;7.164;2022-07-23T01:47:44;21.30;1.00
21193;DHT22;10754;51.106;7.164;2022-07-23T01:50:10;21.30;1.00
21193;DHT22;10754;51.106;7.164;2022-07-23T01:52:36;21.30;1.00
21193;DHT22;10754;51.106;7.164;2022-07-23T01:55:01;21.30;1.00
21193;DHT22;10754;51.106;7.164;2022-07-23T01:57:27;21.30;1.00
21193;DHT22;10754;51.106;7.164;2022-07-23T01:59:52;21.30;1.00
21193;DHT22;10754;51.106;7.164;2022-07-23T02:02:18;21.40;1.00
21193;DHT22;10754;51.106;7.164;2022-07-23T02:04:43;21.40;1.00
21193;DHT22;10754;51.106;7.164;2022-07-23T02:07:09;21.30;1.00
21193;DHT22;10754;51.106;7.164;2022-07-23T02:09:34;21.30;1.00
21193;DHT22;10754;51.106;7.164;2022-07-23T02:12:00;21.40;1.00
21193;DHT22;10754;51.106;7.164;2022-07-23T02:14:26;21.40;1.00
21193;DHT22;10754;51.106;7.164;2022-07-23T02:16:52;21.40;1.00
21193;DHT22;10754;51.106;7.164;2022-07-23T02:19:17;21.40;1.00
21193;DHT22;10754;51.106;7.164;2022-07-23T02:21:43;21.40;1.00
21193;DHT22;10754;51.106;7.164;2022-07-23T02:24:08;21.50;1.00
21193;DHT22;10754;51.106;7.164;2022-07-23T02:26:34;21.50;1.00
21193;DHT22;10754;51.106;7.164;2022-07-23T02:29:03;21.40;1.00
21193;DHT22;10754;51.106;7.164;2022-07-23T02:31:29;21.30;1.00
21193;DHT22;10754;51.106;7.164;2022-07-23T02:33:56;21.20;1.00
21193;DHT22;10754;51.106;7.164;2022-07-23T02:36:21;21.20;1.00
21193;DHT22;10754;51.106;7.164;2022-07-23T02:38:47;21.20;1.00
21193;DHT22;10754;51.106;7.164;2022-07-23T02:41:12;21.20;1.00
21193;DHT22;10754;51.106;7.164;2022-07-23T02:43:39;21.20;1.00
21193;DHT22;10754;51.106;7.164;2022-07-23T02:46:04;21.30;1.00
21193;DHT22;10754;51.106;7.164;2022-07-23T02:48:30;21.30;1.00
21193;DHT22;10754;51.106;7.164;2022-07-23T02:50:55;21.30;1.00
21193;DHT22;10754;51.106;7.164;2022-07-23T02:53:22;21.30;1.00
21193;DHT22;10754;51.106;7.164;2022-07-23T02:55:48;21.20;1.00
21193;DHT22;10754;51.106;7.164;2022-07-23T02:58:13;21.10;1.00
21193;DHT22;10754;51.106;7.164;2022-07-23T03:00:39;21.10;1.00
21193;DHT22;10754;51.106;7.164;2022-07-23T03:03:04;21.10;1.00
21193;DHT22;10754;51.106;7.164;2022-07-23T03:05:30;21.10;1.00
21193;DHT22;10754;51.106;7.164;2022-07-23T03:07:55;21.10;1.00
21193;DHT22;10754;51.106;7.164;2022-07-23T03:10:21;21.10;1.00
21193;DHT22;10754;51.106;7.164;2022-07-23T03:12:46;21.10;1.00
21193;DHT22;10754;51.106;7.164;2022-07-23T03:15:12;21.10;1.00
21193;DHT22;10754;51.106;7.164;2022-07-23T03:17:37;21.10;1.00
21193;DHT22;10754;51.106;7.164;2022-07-23T03:20:03;21.10;1.00
21193;DHT22;10754;51.106;7.164;2022-07-23T03:22:29;21.10;1.00
21193;DHT22;10754;51.106;7.164;2022-07-23T03:24:54;21.00;1.00
21193;DHT22;10754;51.106;7.164;2022-07-23T03:27:24;21.00;1.00
21193;DHT22;10754;51.106;7.164;2022-07-23T03:29:51;21.00;1.00
21193;DHT22;10754;51.106;7.164;2022-07-23T03:32:17;21.00;1.00
21193;DHT22;10754;51.106;7.164;2022-07-23T03:34:43;21.00;1.00
21193;DHT22;10754;51.106;7.164;2022-07-23T03:37:08;20.90;1.00
21193;DHT22;10754;51.106;7.164;2022-07-23T03:39:34;20.90;1.00
21193;DHT22;10754;51.106;7.164;2022-07-23T03:41:59;20.80;1.00
21193;DHT22;10754;51.106;7.164;2022-07-23T03:44:25;20.80;1.00
21193;DHT22;10754;51.106;7.164;2022-07-23T03:46:51;20.70;1.00
21193;DHT22;10754;51.106;7.164;2022-07-23T03:49:16;20.70;1.00
21193;DHT22;10754;51.106;7.164;2022-07-23T03:51:42;20.70;1.00
21193;DHT22;10754;51.106;7.164;2022-07-23T03:54:08;20.70;1.00
21193;DHT22;10754;51.106;7.164;2022-07-23T03:56:34;20.70;1.00
21193;DHT22;10754;51.106;7.164;2022-07-23T03:58:59;20.70;1.00
21193;DHT22;10754;51.106;7.164;2022-07-23T04:01:25;20.70;1.00
21193;DHT22;10754;51.106;7.164;2022-07-23T04:03:50;20.70;1.00
21193;DHT22;10754;51.106;7.164;2022-07-23T04:06:16;20.70;1.00
21193;DHT22;10754;51.106;7.164;2022-07-23T04:08:41;20.60;1.00
21193;DHT22;10754;51.106;7.164;2022-07-23T04:11:07;20.70;1.00
21193;DHT22;10754;51.106;7.164;2022-07-23T04:13:32;20.60;1.00
21193;DHT22;10754;51.106;7.164;2022-07-23T04:15:58;20.60;1.00
21193;DHT22;10754;51.106;7.164;2022-07-23T04:18:23;20.60;1.00
21193;DHT22;10754;51.106;7.164;2022-07-23T04:20:51;20.60;1.00
21193;DHT22;10754;51.106;7.164;2022-07-23T04:23:17;20.50;1.00
21193;DHT22;10754;51.106;7.164;2022-07-23T04:25:42;20.50;1.00
21193;DHT22;10754;51.106;7.164;2022-07-23T04:28:08;20.50;1.00
21193;DHT22;10754;51.106;7.164;2022-07-23T04:30:34;20.50;1.00
21193;DHT22;10754;51.106;7.164;2022-07-23T04:32:59;20.50;1.00
21193;DHT22;10754;51.106;7.164;2022-07-23T04:35:25;20.50;1.00
21193;DHT22;10754;51.106;7.164;2022-07-23T04:37:50;20.40;1.00
21193;DHT22;10754;51.106;7.164;2022-07-23T04:40:16;20.40;1.00
21193;DHT22;10754;51.106;7.164;2022-07-23T04:42:41;20.30;1.00
21193;DHT22;10754;51.106;7.164;2022-07-23T04:45:07;20.40;1.00
21193;DHT22;10754;51.106;7.164;2022-07-23T04:47:33;20.40;1.00
21193;DHT22;10754;51.106;7.164;2022-07-23T04:49:58;20.50;1.00
21193;DHT22;10754;51.106;7.164;2022-07-23T04:52:24;20.50;1.00
21193;DHT22;10754;51.106;7.164;2022-07-23T04:54:50;20.40;1.00
21193;DHT22;10754;51.106;7.164;2022-07-23T04:57:15;20.40;1.00
21193;DHT22;10754;51.106;7.164;2022-07-23T04:59:41;20.30;1.00
21193;DHT22;10754;51.106;7.164;2022-07-23T05:02:06;20.30;1.00
21193;DHT22;10754;51.106;7.164;2022-07-23T05:04:32;20.30;1.00
21193;DHT22;10754;51.106;7.164;2022-07-23T05:06:59;20.30;1.00
21193;DHT22;10754;51.106;7.164;2022-07-23T05:09:24;20.30;1.00
21193;DHT22;10754;51.106;7.164;2022-07-23T05:11:50;20.30;1.00
21193;DHT22;10754;51.106;7.164;2022-07-23T05:14:16;20.30;1.00
21193;DHT22;10754;51.106;7.164;2022-07-23T05:16:41;20.30;1.00
21193;DHT22;10754;51.106;7.164;2022-07-23T05:19:07;20.30;1.00
21193;DHT22;10754;51.106;7.164;2022-07-23T05:21:33;20.30;1.00
21193;DHT22;10754;51.106;7.164;2022-07-23T05:23:58;20.30;1.00
21193;DHT22;10754;51.106;7.164;2022-07-23T05:26:24;20.30;1.00
21193;DHT22;10754;51.106;7.164;2022-07-23T05:28:50;20.40;1.00
21193;DHT22;10754;51.106;7.164;2022-07-23T05:31:16;20.40;1.00
21193;DHT22;10754;51.106;7.164;2022-07-23T05:33:42;20.40;1.00
21193;DHT22;10754;51.106;7.164;2022-07-23T05:36:07;20.40;1.00
21193;DHT22;10754;51.106;7.164;2022-07-23T05:38:33;20.40;1.00
21193;DHT22;10754;51.106;7.164;2022-07-23T05:40:59;20.40;1.00
21193;DHT22;10754;51.106;7.164;2022-07-23T05:43:25;20.50;1.00
21193;DHT22;10754;51.106;7.164;2022-07-23T05:45:51;20.50;1.00
21193;DHT22;10754;51.106;7.164;2022-07-23T05:48:16;20.50;1.00
21193;DHT22;10754;51.106;7.164;2022-07-23T05:50:42;20.50;1.00
21193;DHT22;10754;51.106;7.164;2022-07-23T05:53:07;20.50;1.00
21193;DHT22;10754;51.106;7.164;2022-07-23T05:55:33;20.50;1.00
21193;DHT22;10754;51.106;7.164;2022-07-23T05:57:59;20.50;1.00
21193;DHT22;10754;51.106;7.164;2022-07-23T06:00:25;20.50;1.00
21193;DHT22;10754;51.106;7.164;2022-07-23T06:02:51;20.60;1.00
21193;DHT22;10754;51.106;7.164;2022-07-23T06:05:16;20.60;1.00
21193;DHT22;10754;51.106;7.164;2022-07-23T06:07:42;20.60;1.00
21193;DHT22;10754;51.106;7.164;2022-07-23T06:10:08;20.60;1.00
21193;DHT22;10754;51.106;7.164;2022-07-23T06:12:33;20.60;1.00
21193;DHT22;10754;51.106;7.164;2022-07-23T06:14:59;20.70;1.00
21193;DHT22;10754;51.106;7.164;2022-07-23T06:17:25;20.70;1.00
21193;DHT22;10754;51.106;7.164;2022-07-23T06:19:50;20.70;1.00
21193;DHT22;10754;51.106;7.164;2022-07-23T06:22:16;20.80;1.00
21193;DHT22;10754;51.106;7.164;2022-07-23T06:24:41;20.80;1.00
21193;DHT22;10754;51.106;7.164;2022-07-23T06:27:07;20.80;1.00
21193;DHT22;10754;51.106;7.164;2022-07-23T06:29:33;20.80;1.00
21193;DHT22;10754;51.106;7.164;2022-07-23T06:31:58;20.90;1.00
21193;DHT22;10754;51.106;7.164;2022-07-23T06:34:24;20.80;1.00
21193;DHT22;10754;51.106;7.164;2022-07-23T06:36:50;20.90;1.00
21193;DHT22;10754;51.106;7.164;2022-07-23T06:39:15;20.90;1.00
21193;DHT22;10754;51.106;7.164;2022-07-23T06:41:41;20.90;1.00
21193;DHT22;10754;51.106;7.164;2022-07-23T06:44:07;20.90;1.00
21193;DHT22;10754;51.106;7.164;2022-07-23T06:46:32;20.90;1.00
21193;DHT22;10754;51.106;7.164;2022-07-23T06:48:58;20.90;1.00
21193;DHT22;10754;51.106;7.164;2022-07-23T06:51:23;20.90;1.00
21193;DHT22;10754;51.106;7.164;2022-07-23T06:53:49;20.90;1.00
21193;DHT22;10754;51.106;7.164;2022-07-23T06:56:14;21.00;1.00
21193;DHT22;10754;51.106;7.164;2022-07-23T06:58:40;20.90;1.00
21193;DHT22;10754;51.106;7.164;2022-07-23T07:01:05;21.00;1.00
21193;DHT22;10754;51.106;7.164;2022-07-23T07:03:31;21.00;1.00
21193;DHT22;10754;51.106;7.164;2022-07-23T07:05:56;21.00;1.00
21193;DHT22;10754;51.106;7.164;2022-07-23T07:08:23;21.10;1.00
21193;DHT22;10754;51.106;7.164;2022-07-23T07:10:49;21.10;1.00
21193;DHT22;10754;51.106;7.164;2022-07-23T07:13:14;21.10;1.00
21193;DHT22;10754;51.106;7.164;2022-07-23T07:15:40;21.20;1.00
21193;DHT22;10754;51.106;7.164;2022-07-23T07:18:05;21.10;1.00
21193;DHT22;10754;51.106;7.164;2022-07-23T07:20:31;21.20;1.00
21193;DHT22;10754;51.106;7.164;2022-07-23T07:22:56;21.20;1.00
21193;DHT22;10754;51.106;7.164;2022-07-23T07:25:22;21.20;1.00
21193;DHT22;10754;51.106;7.164;2022-07-23T07:27:48;21.20;1.00
21193;DHT22;10754;51.106;7.164;2022-07-23T07:30:13;21.20;1.00
21193;DHT22;10754;51.106;7.164;2022-07-23T07:32:39;21.20;1.00
21193;DHT22;10754;51.106;7.164;2022-07-23T07:35:06;21.20;1.00
21193;DHT22;10754;51.106;7.164;2022-07-23T07:37:31;21.20;1.00
21193;DHT22;10754;51.106;7.164;2022-07-23T07:39:57;21.30;1.00
21193;DHT22;10754;51.106;7.164;2022-07-23T07:42:23;21.30;1.00
21193;DHT22;10754;51.106;7.164;2022-07-23T07:44:48;21.40;1.00
21193;DHT22;10754;51.106;7.164;2022-07-23T07:47:14;21.30;1.00
21193;DHT22;10754;51.106;7.164;2022-07-23T07:49:41;21.40;1.00
21193;DHT22;10754;51.106;7.164;2022-07-23T07:52:07;21.40;1.00
21193;DHT22;10754;51.106;7.164;2022-07-23T07:54:32;21.40;1.00
21193;DHT22;10754;51.106;7.164;2022-07-23T07:56:58;21.50;1.00
21193;DHT22;10754;51.106;7.164;2022-07-23T07:59:23;21.40;1.00
21193;DHT22;10754;51.106;7.164;2022-07-23T08:01:49;21.50;1.00
21193;DHT22;10754;51.106;7.164;2022-07-23T08:04:15;21.40;1.00
21193;DHT22;10754;51.106;7.164;2022-07-23T08:06:40;21.50;1.00
21193;DHT22;10754;51.106;7.164;2022-07-23T08:09:06;21.50;1.00
21193;DHT22;10754;51.106;7.164;2022-07-23T08:11:31;21.60;1.00
21193;DHT22;10754;51.106;7.164;2022-07-23T08:13:57;21.60;1.00
21193;DHT22;10754;51.106;7.164;2022-07-23T08:16:22;21.60;1.00
21193;DHT22;10754;51.106;7.164;2022-07-23T08:18:48;21.70;1.00
21193;DHT22;10754;51.106;7.164;2022-07-23T08:21:13;21.70;1.00
21193;DHT22;10754;51.106;7.164;2022-07-23T08:23:39;21.70;1.00
21193;DHT22;10754;51.106;7.164;2022-07-23T08:26:04;21.70;1.00
21193;DHT22;10754;51.106;7.164;2022-07-23T08:28:30;21.80;1.00
21193;DHT22;10754;51.106;7.164;2022-07-23T08:30:58;21.80;1.00
21193;DHT22;10754;51.106;7.164;2022-07-23T08:33:24;21.80;1.00
21193;DHT22;10754;51.106;7.164;2022-07-23T08:35:51;21.90;1.00
21193;DHT22;10754;51.106;7.164;2022-07-23T08:38:20;21.90;1.00
21193;DHT22;10754;51.106;7.164;2022-07-23T08:40:48;22.10;1.00
21193;DHT22;10754;51.106;7.164;2022-07-23T08:43:24;22.00;1.00
21193;DHT22;10754;51.106;7.164;2022-07-23T08:45:53;22.10;1.00
21193;DHT22;10754;51.106;7.164;2022-07-23T08:48:24;22.10;1.00
21193;DHT22;10754;51.106;7.164;2022-07-23T08:50:52;22.00;1.00
21193;DHT22;10754;51.106;7.164;2022-07-23T08:53:20;22.00;1.00
21193;DHT22;10754;51.106;7.164;2022-07-23T08:55:47;22.10;1.00
21193;DHT22;10754;51.106;7.164;2022-07-23T08:58:14;22.10;1.00
21193;DHT22;10754;51.106;7.164;2022-07-23T09:00:40;22.10;1.00
21193;DHT22;10754;51.106;7.164;2022-07-23T09:03:06;22.20;1.00
21193;DHT22;10754;51.106;7.164;2022-07-23T09:05:31;22.20;1.00
21193;DHT22;10754;51.106;7.164;2022-07-23T09:08:07;22.20;1.00
21193;DHT22;10754;51.106;7.164;2022-07-23T09:11:00;22.30;1.00
21193;DHT22;10754;51.106;7.164;2022-07-23T09:13:35;22.50;1.00
21193;DHT22;10754;51.106;7.164;2022-07-23T09:16:10;22.50;1.00
21193;DHT22;10754;51.106;7.164;2022-07-23T09:18:49;22.40;1.00
21193;DHT22;10754;51.106;7.164;2022-07-23T09:21:16;22.50;1.00
21193;DHT22;10754;51.106;7.164;2022-07-23T09:23:45;22.40;1.00
21193;DHT22;10754;51.106;7.164;2022-07-23T09:29:11;22.60;1.00
21193;DHT22;10754;51.106;7.164;2022-07-23T09:34:21;22.60;1.00
21193;DHT22;10754;51.106;7.164;2022-07-23T09:36:48;22.70;1.00
21193;DHT22;10754;51.106;7.164;2022-07-23T09:39:16;22.70;1.00
21193;DHT22;10754;51.106;7.164;2022-07-23T09:41:47;22.70;1.00
21193;DHT22;10754;51.106;7.164;2022-07-23T09:44:15;22.70;1.00
21193;DHT22;10754;51.106;7.164;2022-07-23T09:46:42;22.80;1.00
21193;DHT22;10754;51.106;7.164;2022-07-23T09:49:14;22.90;1.00
21193;DHT22;10754;51.106;7.164;2022-07-23T09:51:54;22.90;1.00
21193;DHT22;10754;51.106;7.164;2022-07-23T09:57:05;23.00;1.00
21193;DHT22;10754;51.106;7.164;2022-07-23T09:59:37;22.90;1.00
21193;DHT22;10754;51.106;7.164;2022-07-23T10:02:05;22.90;1.00
21193;DHT22;10754;51.106;7.164;2022-07-23T10:04:31;22.90;1.00
21193;DHT22;10754;51.106;7.164;2022-07-23T10:06:59;23.00;1.00
21193;DHT22;10754;51.106;7.164;2022-07-23T10:09:31;23.20;1.00
21193;DHT22;10754;51.106;7.164;2022-07-23T10:12:03;23.30;1.00
21193;DHT22;10754;51.106;7.164;2022-07-23T10:14:32;23.30;1.00
21193;DHT22;10754;51.106;7.164;2022-07-23T10:16:58;23.40;1.00
21193;DHT22;10754;51.106;7.164;2022-07-23T10:19:25;23.40;1.00
21193;DHT22;10754;51.106;7.164;2022-07-23T10:21:57;23.40;1.00
21193;DHT22;10754;51.106;7.164;2022-07-23T10:24:46;23.40;1.00
21193;DHT22;10754;51.106;7.164;2022-07-23T10:30:15;24.00;1.00
21193;DHT22;10754;51.106;7.164;2022-07-23T10:38:11;24.30;1.00
21193;DHT22;10754;51.106;7.164;2022-07-23T10:41:03;24.60;1.00
21193;DHT22;10754;51.106;7.164;2022-07-23T10:43:29;24.80;1.00
21193;DHT22;10754;51.106;7.164;2022-07-23T10:45:55;25.10;1.00
21193;DHT22;10754;51.106;7.164;2022-07-23T10:48:41;25.40;1.00
21193;DHT22;10754;51.106;7.164;2022-07-23T10:51:12;25.60;1.00
21193;DHT22;10754;51.106;7.164;2022-07-23T10:59:04;26.20;1.00
21193;DHT22;10754;51.106;7.164;2022-07-23T11:01:34;26.30;99.90
21193;DHT22;10754;51.106;7.164;2022-07-23T11:04:00;26.40;99.90
21193;DHT22;10754;51.106;7.164;2022-07-23T11:09:38;26.80;99.90
21193;DHT22;10754;51.106;7.164;2022-07-23T11:15:01;27.10;99.90
21193;DHT22;10754;51.106;7.164;2022-07-23T11:17:27;27.20;99.90
21193;DHT22;10754;51.106;7.164;2022-07-23T11:22:38;27.60;99.90
21193;DHT22;10754;51.106;7.164;2022-07-23T11:25:04;27.70;99.90
21193;DHT22;10754;51.106;7.164;2022-07-23T11:27:40;27.90;99.90
21193;DHT22;10754;51.106;7.164;2022-07-23T11:32:53;28.10;99.90
21193;DHT22;10754;51.106;7.164;2022-07-23T11:35:21;28.00;99.90
21193;DHT22;10754;51.106;7.164;2022-07-23T11:37:48;28.20;99.90
21193;DHT22;10754;51.106;7.164;2022-07-23T11:40:15;28.40;99.90
21193;DHT22;10754;51.106;7.164;2022-07-23T11:43:11;28.50;99.90
21193;DHT22;10754;51.106;7.164;2022-07-23T11:45:38;28.70;99.90
21193;DHT22;10754;51.106;7.164;2022-07-23T11:48:06;28.90;99.90
21193;DHT22;10754;51.106;7.164;2022-07-23T11:50:33;29.00;99.90
21193;DHT22;10754;51.106;7.164;2022-07-23T11:52:58;29.10;99.90
21193;DHT22;10754;51.106;7.164;2022-07-23T11:55:24;29.20;99.90
21193;DHT22;10754;51.106;7.164;2022-07-23T11:57:51;29.30;99.90
21193;DHT22;10754;51.106;7.164;2022-07-23T12:00:20;29.50;99.90
21193;DHT22;10754;51.106;7.164;2022-07-23T12:02:49;29.60;99.90
21193;DHT22;10754;51.106;7.164;2022-07-23T12:05:23;29.70;99.90
21193;DHT22;10754;51.106;7.164;2022-07-23T12:07:50;29.90;99.90
21193;DHT22;10754;51.106;7.164;2022-07-23T12:10:22;29.90;99.90
21193;DHT22;10754;51.106;7.164;2022-07-23T12:12:59;30.10;99.90
21193;DHT22;10754;51.106;7.164;2022-07-23T12:15:27;30.30;99.90
21193;DHT22;10754;51.106;7.164;2022-07-23T12:17:56;30.40;99.90
21193;DHT22;10754;51.106;7.164;2022-07-23T12:20:25;30.90;99.90
21193;DHT22;10754;51.106;7.164;2022-07-23T12:22:55;31.40;99.90
21193;DHT22;10754;51.106;7.164;2022-07-23T12:25:24;32.20;99.90
21193;DHT22;10754;51.106;7.164;2022-07-23T12:28:10;33.10;99.90
21193;DHT22;10754;51.106;7.164;2022-07-23T12:30:51;34.10;99.90
21193;DHT22;10754;51.106;7.164;2022-07-23T12:33:26;34.30;99.90
21193;DHT22;10754;51.106;7.164;2022-07-23T12:35:54;34.20;99.90
21193;DHT22;10754;51.106;7.164;2022-07-23T12:38:21;34.30;99.90
21193;DHT22;10754;51.106;7.164;2022-07-23T12:40:53;35.00;99.90
21193;DHT22;10754;51.106;7.164;2022-07-23T12:45:51;35.00;99.90
21193;DHT22;10754;51.106;7.164;2022-07-23T12:53:53;33.20;99.90
21193;DHT22;10754;51.106;7.164;2022-07-23T12:56:22;33.40;99.90
21193;DHT22;10754;51.106;7.164;2022-07-23T13:01:31;35.90;99.90
21193;DHT22;10754;51.106;7.164;2022-07-23T13:06:44;37.00;99.90
21193;DHT22;10754;51.106;7.164;2022-07-23T13:09:25;37.40;99.90
21193;DHT22;10754;51.106;7.164;2022-07-23T13:11:52;37.20;99.90
21193;DHT22;10754;51.106;7.164;2022-07-23T13:14:18;37.20;99.90
21193;DHT22;10754;51.106;7.164;2022-07-23T13:16:45;35.60;99.90
21193;DHT22;10754;51.106;7.164;2022-07-23T13:19:11;33.90;99.90
21193;DHT22;10754;51.106;7.164;2022-07-23T13:21:37;33.40;99.90
21193;DHT22;10754;51.106;7.164;2022-07-23T13:24:03;33.60;99.90
21193;DHT22;10754;51.106;7.164;2022-07-23T13:26:28;34.70;99.90
21193;DHT22;10754;51.106;7.164;2022-07-23T13:28:54;35.00;99.90
21193;DHT22;10754;51.106;7.164;2022-07-23T13:31:20;35.20;99.90
21193;DHT22;10754;51.106;7.164;2022-07-23T13:33:46;35.40;99.90
21193;DHT22;10754;51.106;7.164;2022-07-23T13:36:11;36.20;99.90
21193;DHT22;10754;51.106;7.164;2022-07-23T13:38:37;36.70;99.90
21193;DHT22;10754;51.106;7.164;2022-07-23T13:41:02;36.30;99.90
21193;DHT22;10754;51.106;7.164;2022-07-23T13:43:31;34.80;99.90
21193;DHT22;10754;51.106;7.164;2022-07-23T13:45:57;34.60;99.90
21193;DHT22;10754;51.106;7.164;2022-07-23T13:48:22;34.60;99.90
21193;DHT22;10754;51.106;7.164;2022-07-23T13:50:49;34.40;99.90
21193;DHT22;10754;51.106;7.164;2022-07-23T13:53:17;34.00;99.90
21193;DHT22;10754;51.106;7.164;2022-07-23T13:55:44;34.10;99.90
21193;DHT22;10754;51.106;7.164;2022-07-23T13:58:10;34.60;99.90
21193;DHT22;10754;51.106;7.164;2022-07-23T14:00:38;34.60;99.90
21193;DHT22;10754;51.106;7.164;2022-07-23T14:03:05;34.20;99.90
21193;DHT22;10754;51.106;7.164;2022-07-23T14:05:30;34.20;99.90
21193;DHT22;10754;51.106;7.164;2022-07-23T14:07:56;35.30;99.90
21193;DHT22;10754;51.106;7.164;2022-07-23T14:10:23;35.60;99.90
21193;DHT22;10754;51.106;7.164;2022-07-23T14:12:51;35.40;99.90
21193;DHT22;10754;51.106;7.164;2022-07-23T14:15:18;34.90;99.90
21193;DHT22;10754;51.106;7.164;2022-07-23T14:17:44;33.70;99.90
21193;DHT22;10754;51.106;7.164;2022-07-23T14:20:11;32.90;99.90
21193;DHT22;10754;51.106;7.164;2022-07-23T14:22:37;32.60;99.90
21193;DHT22;10754;51.106;7.164;2022-07-23T14:25:05;32.30;99.90
21193;DHT22;10754;51.106;7.164;2022-07-23T14:27:30;32.20;99.90
21193;DHT22;10754;51.106;7.164;2022-07-23T14:29:56;32.40;99.90
21193;DHT22;10754;51.106;7.164;2022-07-23T14:32:22;32.50;99.90
21193;DHT22;10754;51.106;7.164;2022-07-23T14:34:48;32.50;99.90
21193;DHT22;10754;51.106;7.164;2022-07-23T14:37:14;32.40;99.90
21193;DHT22;10754;51.106;7.164;2022-07-23T14:39:41;32.10;99.90
21193;DHT22;10754;51.106;7.164;2022-07-23T14:42:07;31.60;99.90
21193;DHT22;10754;51.106;7.164;2022-07-23T14:44:33;32.00;99.90
21193;DHT22;10754;51.106;7.164;2022-07-23T14:47:00;31.60;99.90
21193;DHT22;10754;51.106;7.164;2022-07-23T14:49:28;31.10;99.90
21193;DHT22;10754;51.106;7.164;2022-07-23T14:51:54;30.70;99.90
21193;DHT22;10754;51.106;7.164;2022-07-23T14:54:20;30.50;99.90
21193;DHT22;10754;51.106;7.164;2022-07-23T14:56:46;30.40;99.90
21193;DHT22;10754;51.106;7.164;2022-07-23T14:59:12;30.20;99.90
21193;DHT22;10754;51.106;7.164;2022-07-23T15:01:38;30.00;99.90
21193;DHT22;10754;51.106;7.164;2022-07-23T15:04:07;29.90;99.90
21193;DHT22;10754;51.106;7.164;2022-07-23T15:06:33;30.10;99.90
21193;DHT22;10754;51.106;7.164;2022-07-23T15:08:59;29.90;99.90
21193;DHT22;10754;51.106;7.164;2022-07-23T15:11:27;29.60;99.90
21193;DHT22;10754;51.106;7.164;2022-07-23T15:13:55;29.40;99.90
21193;DHT22;10754;51.106;7.164;2022-07-23T15:16:20;29.30;99.90
21193;DHT22;10754;51.106;7.164;2022-07-23T15:18:46;29.30;99.90
21193;DHT22;10754;51.106;7.164;2022-07-23T15:21:12;29.20;99.90
21193;DHT22;10754;51.106;7.164;2022-07-23T15:23:37;29.20;99.90
21193;DHT22;10754;51.106;7.164;2022-07-23T15:26:05;29.20;99.90
21193;DHT22;10754;51.106;7.164;2022-07-23T15:28:31;29.00;99.90
21193;DHT22;10754;51.106;7.164;2022-07-23T15:30:56;28.90;99.90
21193;DHT22;10754;51.106;7.164;2022-07-23T15:33:22;28.80;99.90
21193;DHT22;10754;51.106;7.164;2022-07-23T15:35:47;28.80;99.90
21193;DHT22;10754;51.106;7.164;2022-07-23T15:38:13;28.70;99.90
21193;DHT22;10754;51.106;7.164;2022-07-23T15:40:38;28.60;99.90
21193;DHT22;10754;51.106;7.164;2022-07-23T15:43:04;28.50;99.90
21193;DHT22;10754;51.106;7.164;2022-07-23T15:45:33;28.40;99.90
21193;DHT22;10754;51.106;7.164;2022-07-23T15:47:58;28.40;99.90
21193;DHT22;10754;51.106;7.164;2022-07-23T15:50:24;28.20;99.90
21193;DHT22;10754;51.106;7.164;2022-07-23T15:52:49;28.10;99.90
21193;DHT22;10754;51.106;7.164;2022-07-23T15:55:15;28.10;99.90
21193;DHT22;10754;51.106;7.164;2022-07-23T15:57:41;28.10;99.90
21193;DHT22;10754;51.106;7.164;2022-07-23T16:00:07;28.00;99.90
21193;DHT22;10754;51.106;7.164;2022-07-23T16:02:34;27.90;99.90
21193;DHT22;10754;51.106;7.164;2022-07-23T16:05:00;27.80;99.90
21193;DHT22;10754;51.106;7.164;2022-07-23T16:07:26;27.80;99.90
21193;DHT22;10754;51.106;7.164;2022-07-23T16:09:51;27.80;99.90
21193;DHT22;10754;51.106;7.164;2022-07-23T16:12:17;27.80;99.90
21193;DHT22;10754;51.106;7.164;2022-07-23T16:14:42;27.80;99.90
21193;DHT22;10754;51.106;7.164;2022-07-23T16:17:08;27.70;99.90
21193;DHT22;10754;51.106;7.164;2022-07-23T16:19:33;27.60;99.90
21193;DHT22;10754;51.106;7.164;2022-07-23T16:21:59;27.60;99.90
21193;DHT22;10754;51.106;7.164;2022-07-23T16:24:25;27.50;99.90